Time;durP1;ratioP1;P1;durP2;ratioP2;P2;SDS_P1;SDS_P2;PMS_P1;PMS_P2;Temp;Humidity;BMP_temperature;BMP_pressure;BME280_temperature;BME280_humidity;BME280_pressure;Samples;Min_cycle;Max_cycle;Signal;HPM_P1;HPM_P2
2021/09/19 00:02:11;;;;;;;2.57;1.43;;;13.70;99.90;;;;;;4994558;28;20437;-85
2021/09/19 00:04:39;;;;;;;3.97;2.10;;;13.70;99.90;;;;;;4995161;28;20432;-86
2021/09/19 00:07:06;;;;;;;3.23;1.70;;;13.70;99.90;;;;;;4994809;28;20440;-86
2021/09/19 00:09:33;;;;;;;1.47;1.37;;;13.70;99.90;;;;;;4994947;28;20464;-85
2021/09/19 00:11:59;;;;;;;1.33;0.77;;;13.60;99.90;;;;;;4999253;28;20452;-85
2021/09/19 00:14:26;;;;;;;3.03;1.40;;;13.60;99.90;;;;;;4997697;28;20432;-82
2021/09/19 00:16:53;;;;;;;1.37;1.27;;;13.60;99.90;;;;;;4994353;28;20824;-83
2021/09/19 00:19:20;;;;;;;4.50;2.33;;;13.50;99.90;;;;;;4994191;28;20468;-83
2021/09/19 00:21:48;;;;;;;2.20;1.73;;;13.50;99.90;;;;;;4994288;28;20444;-83
2021/09/19 00:24:16;;;;;;;1.63;1.20;;;13.50;99.90;;;;;;4994523;28;20817;-79
2021/09/19 00:26:43;;;;;;;2.00;1.50;;;13.50;99.90;;;;;;4993888;28;20947;-79
2021/09/19 00:29:10;;;;;;;2.73;1.33;;;13.50;99.90;;;;;;4993778;28;20987;-79
2021/09/19 00:31:36;;;;;;;2.33;1.13;;;13.40;99.90;;;;;;4994089;28;20453;-79
2021/09/19 00:34:03;;;;;;;3.07;1.57;;;13.40;99.90;;;;;;4993791;28;20451;-79
2021/09/19 00:36:30;;;;;;;4.03;1.00;;;13.40;99.90;;;;;;4993971;28;20995;-79
2021/09/19 00:38:58;;;;;;;1.10;1.00;;;13.40;99.90;;;;;;4993946;28;20468;-79
2021/09/19 00:41:25;;;;;;;2.83;1.60;;;13.40;99.90;;;;;;4994278;28;20955;-83
2021/09/19 00:43:51;;;;;;;2.30;1.23;;;13.40;99.90;;;;;;4993973;28;20460;-83
2021/09/19 00:46:18;;;;;;;2.70;1.20;;;13.40;99.90;;;;;;4994019;28;20440;-83
2021/09/19 00:48:45;;;;;;;1.40;0.97;;;13.30;99.90;;;;;;4993872;28;20448;-83
2021/09/19 00:51:12;;;;;;;2.53;1.40;;;13.40;99.90;;;;;;4993925;28;20940;-82
2021/09/19 00:53:39;;;;;;;2.07;0.87;;;13.30;99.90;;;;;;4994396;28;20456;-85
2021/09/19 00:56:08;;;;;;;1.77;1.00;;;13.30;99.90;;;;;;4993896;28;21114;-85
2021/09/19 00:58:35;;;;;;;1.10;1.00;;;13.30;99.90;;;;;;4999983;28;20456;-85
2021/09/19 01:01:03;;;;;;;1.20;1.10;;;13.30;99.90;;;;;;4998227;28;20455;-85
2021/09/19 01:03:30;;;;;;;2.03;1.60;;;13.20;99.90;;;;;;4997821;28;20488;-80
2021/09/19 01:05:58;;;;;;;1.00;0.83;;;13.20;99.90;;;;;;4998015;28;20444;-80
2021/09/19 01:08:24;;;;;;;1.33;1.17;;;13.30;99.90;;;;;;4997405;28;20452;-80
2021/09/19 01:10:52;;;;;;;2.30;1.43;;;13.20;99.90;;;;;;4997523;28;20460;-85
2021/09/19 01:13:21;;;;;;;3.37;1.20;;;13.30;99.90;;;;;;4997852;28;20944;-85
2021/09/19 01:15:48;;;;;;;3.00;1.33;;;13.20;99.90;;;;;;4997843;28;20495;-80
2021/09/19 01:18:17;;;;;;;2.80;1.37;;;13.20;99.90;;;;;;4997550;28;20456;-80
2021/09/19 01:20:45;;;;;;;1.10;0.73;;;13.20;99.90;;;;;;4997614;28;20464;-80
2021/09/19 01:23:13;;;;;;;0.73;0.60;;;13.10;99.90;;;;;;4997249;28;20472;-80
2021/09/19 01:25:42;;;;;;;1.63;1.33;;;13.10;99.90;;;;;;4997431;28;20451;-80
2021/09/19 01:28:11;;;;;;;2.77;1.27;;;13.10;99.90;;;;;;4997120;28;20451;-80
2021/09/19 01:30:38;;;;;;;3.90;0.90;;;13.00;99.90;;;;;;4997508;28;20468;-80
2021/09/19 01:33:05;;;;;;;1.60;1.50;;;12.90;99.90;;;;;;4997074;28;20444;-82
2021/09/19 01:35:32;;;;;;;1.43;1.10;;;12.90;99.90;;;;;;4997397;28;20480;-83
2021/09/19 01:37:59;;;;;;;3.50;1.27;;;12.90;99.90;;;;;;4997244;28;20479;-83
2021/09/19 01:40:27;;;;;;;3.20;1.50;;;12.90;99.90;;;;;;4997110;28;20487;-82
2021/09/19 01:42:55;;;;;;;1.53;0.80;;;12.80;99.90;;;;;;4996809;28;21015;-83
2021/09/19 01:45:23;;;;;;;2.87;1.13;;;12.80;99.90;;;;;;4997074;28;20440;-83
2021/09/19 01:47:50;;;;;;;3.97;1.30;;;12.90;99.90;;;;;;4997098;28;20488;-84
2021/09/19 01:50:17;;;;;;;2.93;1.37;;;12.90;99.90;;;;;;4996673;28;20456;-81
2021/09/19 01:52:44;;;;;;;1.40;1.30;;;12.90;99.90;;;;;;4996931;28;20861;-80
2021/09/19 01:55:11;;;;;;;1.93;0.73;;;12.90;99.90;;;;;;4996558;28;20443;-80
2021/09/19 01:57:37;;;;;;;1.07;0.97;;;12.80;99.90;;;;;;4996886;28;20460;-80
2021/09/19 02:00:07;;;;;;;2.03;1.20;;;12.80;99.90;;;;;;4996757;28;20542;-81
2021/09/19 02:02:35;;;;;;;1.37;1.00;;;12.80;99.90;;;;;;4996309;28;20862;-80
2021/09/19 02:05:03;;;;;;;1.93;1.83;;;12.70;99.90;;;;;;4996697;28;20542;-80
2021/09/19 02:07:30;;;;;;;1.20;1.10;;;12.70;99.90;;;;;;4996139;28;20575;-80
2021/09/19 02:09:57;;;;;;;0.93;0.90;;;12.70;99.90;;;;;;4996546;28;20476;-80
2021/09/19 02:12:24;;;;;;;1.53;1.43;;;12.70;99.90;;;;;;4996552;28;20445;-80
2021/09/19 02:14:50;;;;;;;2.50;1.93;;;12.70;99.90;;;;;;4996303;28;20460;-79
2021/09/19 02:17:18;;;;;;;2.13;1.00;;;12.70;99.90;;;;;;4996443;28;20501;-80
2021/09/19 02:19:45;;;;;;;1.57;1.47;;;12.70;99.90;;;;;;4996344;28;20472;-80
2021/09/19 02:22:13;;;;;;;2.50;0.70;;;12.70;99.90;;;;;;4996346;28;20943;-80
2021/09/19 02:24:40;;;;;;;2.33;1.10;;;12.70;99.90;;;;;;4996399;28;20495;-83
2021/09/19 02:27:07;;;;;;;1.90;1.17;;;12.70;99.90;;;;;;4996038;28;20448;-83
2021/09/19 02:29:34;;;;;;;3.23;1.23;;;12.60;99.90;;;;;;4996187;28;20468;-83
2021/09/19 02:32:01;;;;;;;1.53;1.00;;;12.50;99.90;;;;;;4996390;28;20452;-83
2021/09/19 02:34:29;;;;;;;2.20;1.27;;;12.50;99.90;;;;;;4995828;28;20849;-83
2021/09/19 02:36:56;;;;;;;2.40;0.80;;;12.50;99.90;;;;;;4996038;28;20484;-83
2021/09/19 02:39:22;;;;;;;2.10;0.93;;;12.50;99.90;;;;;;4996024;28;20468;-84
2021/09/19 02:41:49;;;;;;;0.83;0.83;;;12.40;99.90;;;;;;4995770;28;20464;-83
2021/09/19 02:44:16;;;;;;;1.50;0.93;;;12.40;99.90;;;;;;4995978;28;20444;-83
2021/09/19 02:46:43;;;;;;;4.17;0.90;;;12.40;99.90;;;;;;4995935;28;20456;-83
2021/09/19 02:49:09;;;;;;;1.60;1.07;;;12.40;99.90;;;;;;4995849;28;20476;-83
2021/09/19 02:51:37;;;;;;;1.83;0.80;;;12.40;99.90;;;;;;4995880;28;20452;-83
2021/09/19 02:54:04;;;;;;;3.43;1.40;;;12.40;99.90;;;;;;4996110;28;20441;-82
2021/09/19 02:56:31;;;;;;;0.60;0.60;;;12.30;99.90;;;;;;4995712;28;20495;-83
2021/09/19 02:58:57;;;;;;;2.00;0.90;;;12.30;99.90;;;;;;4995621;28;20818;-83
2021/09/19 03:01:24;;;;;;;3.50;1.50;;;12.30;99.90;;;;;;4995689;28;20797;-83
2021/09/19 03:03:51;;;;;;;3.67;1.43;;;12.20;99.90;;;;;;4995429;28;20480;-83
2021/09/19 03:06:19;;;;;;;0.80;0.80;;;12.10;99.90;;;;;;4995285;28;20448;-83
2021/09/19 03:08:47;;;;;;;1.60;0.83;;;12.10;99.90;;;;;;4995527;28;20448;-83
2021/09/19 03:11:13;;;;;;;0.80;0.80;;;12.10;99.90;;;;;;4995536;28;20444;-83
2021/09/19 03:13:40;;;;;;;1.73;1.07;;;12.10;99.90;;;;;;4995432;28;20456;-83
2021/09/19 03:16:07;;;;;;;1.33;1.23;;;12.10;99.90;;;;;;4995347;28;20832;-83
2021/09/19 03:18:34;;;;;;;2.13;0.90;;;12.10;99.90;;;;;;4994882;28;20936;-83
2021/09/19 03:21:00;;;;;;;1.23;0.87;;;12.10;99.90;;;;;;4994484;28;20455;-83
2021/09/19 03:23:27;;;;;;;0.90;0.73;;;12.10;99.90;;;;;;4995090;28;20932;-83
2021/09/19 03:25:55;;;;;;;1.30;0.77;;;12.10;99.90;;;;;;4995205;28;20448;-83
2021/09/19 03:28:22;;;;;;;2.53;1.10;;;12.00;99.90;;;;;;4994910;28;20773;-83
2021/09/19 03:30:48;;;;;;;1.20;1.20;;;11.90;99.90;;;;;;4995048;28;20471;-83
2021/09/19 03:33:15;;;;;;;2.40;1.50;;;11.90;99.90;;;;;;4995081;28;20459;-84
2021/09/19 03:35:42;;;;;;;2.93;0.77;;;11.90;99.90;;;;;;4995008;28;20440;-80
2021/09/19 03:38:09;;;;;;;2.10;1.57;;;11.80;99.90;;;;;;4994940;28;20463;-80
2021/09/19 03:40:35;;;;;;;1.90;1.03;;;11.80;99.90;;;;;;4994671;28;20873;-79
2021/09/19 03:43:03;;;;;;;1.43;1.17;;;11.80;99.90;;;;;;4994705;28;20439;-79
2021/09/19 03:45:31;;;;;;;2.00;1.00;;;11.80;99.90;;;;;;4994842;28;20452;-80
2021/09/19 03:48:03;;;;;;;1.67;0.90;;;11.70;99.90;;;;;;4994810;28;20453;-80
2021/09/19 03:50:29;;;;;;;4.30;1.13;;;11.70;99.90;;;;;;4994417;28;20976;-80
2021/09/19 03:52:56;;;;;;;1.67;0.73;;;11.60;99.90;;;;;;4994956;28;20448;-79
2021/09/19 03:55:23;;;;;;;0.83;0.73;;;11.60;99.90;;;;;;4994388;28;20454;-80
2021/09/19 03:57:50;;;;;;;0.90;0.90;;;11.50;99.90;;;;;;4994599;28;20836;-80
2021/09/19 04:00:19;;;;;;;1.23;0.83;;;11.50;99.90;;;;;;4994524;28;20475;-80
2021/09/19 04:02:45;;;;;;;0.77;0.77;;;11.50;99.90;;;;;;4994228;28;20484;-80
2021/09/19 04:05:13;;;;;;;2.20;1.73;;;11.50;99.90;;;;;;4994786;28;20453;-80
2021/09/19 04:07:40;;;;;;;2.10;1.40;;;11.50;99.90;;;;;;4994464;28;20453;-80
2021/09/19 04:10:09;;;;;;;1.00;1.00;;;11.60;99.90;;;;;;4994135;28;20467;-80
2021/09/19 04:12:36;;;;;;;5.03;0.97;;;11.50;99.90;;;;;;4994395;28;20524;-80
2021/09/19 04:15:03;;;;;;;2.30;1.20;;;11.50;99.90;;;;;;4994325;28;20467;-79
2021/09/19 04:17:31;;;;;;;3.03;0.87;;;11.50;99.90;;;;;;4994252;28;20500;-80
2021/09/19 04:19:58;;;;;;;2.33;1.07;;;11.50;99.90;;;;;;4994398;28;20472;-85
2021/09/19 04:22:25;;;;;;;2.43;0.60;;;11.50;99.90;;;;;;4994305;28;20432;-85
2021/09/19 04:24:52;;;;;;;1.97;1.10;;;11.50;99.90;;;;;;4994302;28;20515;-85
2021/09/19 04:27:19;;;;;;;2.27;1.30;;;11.50;99.90;;;;;;4994248;28;20445;-85
2021/09/19 04:29:46;;;;;;;1.73;0.70;;;11.40;99.90;;;;;;4994011;28;21014;-85
2021/09/19 04:32:13;;;;;;;1.90;0.90;;;11.40;99.90;;;;;;4994356;28;20810;-85
2021/09/19 04:34:41;;;;;;;1.30;1.20;;;11.40;99.90;;;;;;4994357;28;20577;-85
2021/09/19 04:37:11;;;;;;;1.57;1.47;;;11.50;99.90;;;;;;4994160;28;20491;-85
2021/09/19 04:39:38;;;;;;;1.57;1.00;;;11.40;99.90;;;;;;4994052;28;20500;-85
2021/09/19 04:42:05;;;;;;;3.33;1.50;;;11.40;99.90;;;;;;4994794;28;20471;-85
2021/09/19 04:44:32;;;;;;;1.20;0.83;;;11.40;99.90;;;;;;4994299;28;20459;-85
2021/09/19 04:46:58;;;;;;;1.80;0.60;;;11.40;99.90;;;;;;4994150;28;20448;-85
2021/09/19 04:49:25;;;;;;;1.20;1.00;;;11.30;99.90;;;;;;4994174;28;20479;-85
2021/09/19 04:51:53;;;;;;;1.40;1.27;;;11.40;99.90;;;;;;4994221;28;20459;-85
2021/09/19 04:54:20;;;;;;;1.23;0.70;;;11.40;99.90;;;;;;4993863;28;20437;-85
2021/09/19 04:56:47;;;;;;;1.83;1.30;;;11.30;99.90;;;;;;4993916;28;20483;-80
2021/09/19 04:59:13;;;;;;;2.10;1.13;;;11.20;99.90;;;;;;4993499;28;20571;-80
2021/09/19 05:01:40;;;;;;;2.33;1.40;;;11.20;99.90;;;;;;4993849;28;20536;-80
2021/09/19 05:04:07;;;;;;;1.67;1.37;;;11.20;99.90;;;;;;4993625;28;20487;-80
2021/09/19 05:06:33;;;;;;;2.30;0.90;;;11.20;99.90;;;;;;4993799;28;20451;-80
2021/09/19 05:09:01;;;;;;;3.47;0.90;;;11.20;99.90;;;;;;4993375;28;20903;-80
2021/09/19 05:11:28;;;;;;;2.70;1.03;;;11.10;99.90;;;;;;4993454;28;20957;-80
2021/09/19 05:13:55;;;;;;;3.53;1.63;;;11.10;99.90;;;;;;4993787;28;20443;-79
2021/09/19 05:16:22;;;;;;;2.87;1.40;;;11.10;99.90;;;;;;4993303;28;21030;-80
2021/09/19 05:18:49;;;;;;;1.20;0.60;;;11.10;99.90;;;;;;4993670;28;20495;-80
2021/09/19 05:21:15;;;;;;;1.50;0.87;;;11.10;99.90;;;;;;4993649;28;20463;-80
2021/09/19 05:23:42;;;;;;;0.83;0.60;;;11.10;99.90;;;;;;4993646;28;20807;-80
2021/09/19 05:26:10;;;;;;;1.17;0.80;;;11.20;99.90;;;;;;4993397;28;20952;-79
2021/09/19 05:28:37;;;;;;;1.27;1.10;;;11.10;99.90;;;;;;4993568;28;20445;-80
2021/09/19 05:31:04;;;;;;;0.93;0.93;;;11.10;99.90;;;;;;4993266;28;20791;-80
2021/09/19 05:33:31;;;;;;;3.10;1.70;;;11.10;99.90;;;;;;4993569;28;20452;-80
2021/09/19 05:35:57;;;;;;;1.17;1.10;;;11.20;99.90;;;;;;4993572;28;20452;-80
2021/09/19 05:38:24;;;;;;;1.30;1.20;;;11.20;99.90;;;;;;4993440;28;20488;-80
2021/09/19 05:40:51;;;;;;;2.67;1.70;;;11.20;99.90;;;;;;4993393;28;20472;-80
2021/09/19 05:43:19;;;;;;;4.37;1.17;;;11.20;99.90;;;;;;4994940;28;20433;-79
2021/09/19 05:45:45;;;;;;;1.17;0.90;;;11.30;99.90;;;;;;4996755;28;20940;-80
2021/09/19 05:48:12;;;;;;;2.50;0.70;;;11.30;99.90;;;;;;4997237;28;20456;-80
2021/09/19 05:50:39;;;;;;;2.90;1.43;;;11.30;99.90;;;;;;4996624;28;20995;-79
2021/09/19 05:53:06;;;;;;;1.40;1.30;;;11.30;99.90;;;;;;4997267;28;20452;-80
2021/09/19 05:55:33;;;;;;;2.60;1.83;;;11.30;99.90;;;;;;4996672;28;20784;-80
2021/09/19 05:57:59;;;;;;;2.10;1.73;;;11.40;99.90;;;;;;4996564;28;20476;-80
2021/09/19 06:00:28;;;;;;;2.33;1.17;;;11.40;99.90;;;;;;4997132;28;20468;-85
2021/09/19 06:02:55;;;;;;;3.53;1.43;;;11.40;99.90;;;;;;4996914;28;20488;-85
2021/09/19 06:05:21;;;;;;;1.53;0.80;;;11.50;99.90;;;;;;4996690;28;20932;-85
2021/09/19 06:07:48;;;;;;;2.17;0.90;;;11.50;99.90;;;;;;4996888;28;20467;-85
2021/09/19 06:10:15;;;;;;;5.70;1.63;;;11.60;99.90;;;;;;4996828;28;20457;-85
2021/09/19 06:12:42;;;;;;;3.60;1.40;;;11.60;99.90;;;;;;4996649;28;20975;-85
2021/09/19 06:15:10;;;;;;;2.13;1.07;;;11.70;99.90;;;;;;4996423;28;20448;-85
2021/09/19 06:17:38;;;;;;;3.60;1.10;;;11.70;99.90;;;;;;4996475;28;20821;-84
2021/09/19 06:20:06;;;;;;;2.20;1.00;;;11.80;99.90;;;;;;4996264;28;20987;-85
2021/09/19 06:22:33;;;;;;;2.93;1.83;;;11.80;99.90;;;;;;4996433;28;20449;-85
2021/09/19 06:24:59;;;;;;;2.13;1.67;;;12.00;99.90;;;;;;4996392;28;20452;-84
2021/09/19 06:27:26;;;;;;;1.90;1.70;;;12.00;99.90;;;;;;4996411;28;20444;-80
2021/09/19 06:29:53;;;;;;;1.33;1.20;;;12.10;99.90;;;;;;4996352;28;20892;-80
2021/09/19 06:32:20;;;;;;;1.03;0.70;;;12.10;99.90;;;;;;4995917;28;20940;-80
2021/09/19 06:34:48;;;;;;;1.77;0.97;;;12.20;99.90;;;;;;4996172;28;20456;-80
2021/09/19 06:37:15;;;;;;;2.30;1.40;;;12.30;99.90;;;;;;4995790;28;20484;-81
2021/09/19 06:39:41;;;;;;;2.57;1.20;;;12.40;99.90;;;;;;4996441;28;20477;-80
2021/09/19 06:42:08;;;;;;;4.43;2.17;;;12.40;99.90;;;;;;4995740;28;20816;-80
2021/09/19 06:44:35;;;;;;;1.77;1.30;;;12.40;99.90;;;;;;4996022;28;20870;-80
2021/09/19 06:47:02;;;;;;;3.80;1.50;;;12.40;99.90;;;;;;4996007;28;20444;-80
2021/09/19 06:49:28;;;;;;;2.03;1.10;;;12.40;99.90;;;;;;4995604;28;20998;-81
2021/09/19 06:51:56;;;;;;;1.13;1.03;;;12.50;99.90;;;;;;4995870;28;20456;-80
2021/09/19 06:54:23;;;;;;;6.70;1.47;;;12.60;99.90;;;;;;4995761;28;20448;-81
2021/09/19 06:56:50;;;;;;;4.50;1.17;;;12.70;99.90;;;;;;4995650;28;20563;-81
2021/09/19 06:59:17;;;;;;;2.77;2.33;;;12.80;99.90;;;;;;4995657;28;20559;-81
2021/09/19 07:01:44;;;;;;;0.93;0.93;;;12.80;99.90;;;;;;4995664;28;20479;-80
2021/09/19 07:04:11;;;;;;;1.60;1.50;;;12.90;99.90;;;;;;4995267;28;20492;-81
2021/09/19 07:06:38;;;;;;;1.63;1.20;;;12.90;99.90;;;;;;4995589;28;20459;-81
2021/09/19 07:09:07;;;;;;;3.93;1.20;;;13.00;99.90;;;;;;4995494;28;20468;-81
2021/09/19 07:11:34;;;;;;;3.80;2.13;;;13.00;99.90;;;;;;4995189;28;20452;-81
2021/09/19 07:14:00;;;;;;;0.80;0.80;;;13.00;99.90;;;;;;4995209;28;20436;-81
2021/09/19 07:16:27;;;;;;;1.00;0.93;;;13.10;99.90;;;;;;4995396;28;20871;-81
2021/09/19 07:18:54;;;;;;;2.47;1.23;;;13.10;99.90;;;;;;4995193;28;20499;-81
2021/09/19 07:21:22;;;;;;;2.00;1.90;;;13.20;99.90;;;;;;4995274;28;20448;-80
2021/09/19 07:23:48;;;;;;;1.20;0.90;;;13.20;99.90;;;;;;4995404;28;20461;-81
2021/09/19 07:26:17;;;;;;;1.60;1.00;;;13.30;99.90;;;;;;4995225;28;20448;-81
2021/09/19 07:28:44;;;;;;;1.83;0.97;;;13.30;99.90;;;;;;4995873;28;20452;-81
2021/09/19 07:31:11;;;;;;;1.93;0.80;;;13.40;99.90;;;;;;4995087;28;20456;-81
2021/09/19 07:33:38;;;;;;;2.17;1.20;;;13.50;99.90;;;;;;4994697;28;20967;-81
2021/09/19 07:36:06;;;;;;;1.40;1.07;;;13.70;99.90;;;;;;4994708;28;20440;-81
2021/09/19 07:38:34;;;;;;;1.10;1.00;;;13.90;99.90;;;;;;4994613;28;20484;-81
2021/09/19 07:41:00;;;;;;;2.30;0.97;;;13.90;99.90;;;;;;4994932;28;20451;-81
2021/09/19 07:43:29;;;;;;;2.00;1.23;;;14.00;99.90;;;;;;4994715;28;20448;-81
2021/09/19 07:45:56;;;;;;;1.50;0.80;;;14.10;99.90;;;;;;4994918;28;20807;-81
2021/09/19 07:48:24;;;;;;;1.10;1.00;;;14.10;99.90;;;;;;4994828;28;20444;-81
2021/09/19 07:50:51;;;;;;;0.73;0.73;;;14.30;99.90;;;;;;4994400;28;20906;-81
2021/09/19 07:53:19;;;;;;;1.63;1.53;;;14.40;99.90;;;;;;4994780;28;20451;-81
2021/09/19 07:55:46;;;;;;;1.50;1.00;;;14.50;99.90;;;;;;4994383;28;20951;-81
2021/09/19 07:58:12;;;;;;;0.80;0.80;;;14.60;99.90;;;;;;4994341;28;20483;-82
2021/09/19 08:00:40;;;;;;;2.03;1.00;;;14.70;99.90;;;;;;4994283;28;20560;-80
2021/09/19 08:03:07;;;;;;;0.90;0.80;;;14.90;99.90;;;;;;4994290;28;20480;-81
2021/09/19 08:05:34;;;;;;;2.20;2.10;;;15.10;99.90;;;;;;4994079;28;20448;-81
2021/09/19 08:08:01;;;;;;;0.77;0.73;;;15.10;99.90;;;;;;4994562;28;20437;-81
2021/09/19 08:10:28;;;;;;;1.90;1.40;;;15.10;99.90;;;;;;4994427;28;20464;-82
2021/09/19 08:12:54;;;;;;;3.83;1.53;;;15.20;99.90;;;;;;4994374;28;20429;-81
2021/09/19 08:15:22;;;;;;;1.47;1.00;;;15.20;99.90;;;;;;4994424;28;20433;-82
2021/09/19 08:17:52;;;;;;;2.87;1.37;;;15.40;99.90;;;;;;4994300;28;20468;-82
2021/09/19 08:20:20;;;;;;;2.00;1.67;;;15.50;99.90;;;;;;4994254;28;20813;-81
2021/09/19 08:22:47;;;;;;;1.40;1.07;;;15.60;99.90;;;;;;4994270;28;20437;-82
2021/09/19 08:25:15;;;;;;;1.33;1.03;;;15.70;99.90;;;;;;4994285;28;20449;-82
2021/09/19 08:27:43;;;;;;;2.80;1.73;;;15.90;99.90;;;;;;4994207;28;20925;-82
2021/09/19 08:30:13;;;;;;;3.07;1.87;;;16.20;99.90;;;;;;4993970;28;20461;-82
2021/09/19 08:32:40;;;;;;;1.20;0.70;;;16.40;99.90;;;;;;4994211;28;20421;-82
2021/09/19 08:35:11;;;;;;;1.33;1.17;;;16.40;99.90;;;;;;4993836;28;20905;-82
2021/09/19 08:37:39;;;;;;;1.97;1.23;;;16.50;99.90;;;;;;4993999;28;20476;-82
2021/09/19 08:40:07;;;;;;;1.90;1.50;;;16.60;99.90;;;;;;4994051;28;20856;-82
2021/09/19 08:42:36;;;;;;;3.20;1.53;;;16.70;99.90;;;;;;4994086;28;20440;-82
2021/09/19 08:45:04;;;;;;;2.33;0.90;;;16.70;99.90;;;;;;4993722;28;20487;-83
2021/09/19 08:47:31;;;;;;;1.90;1.20;;;16.80;99.90;;;;;;4993986;28;20440;-82
2021/09/19 08:49:58;;;;;;;1.07;1.00;;;17.00;99.90;;;;;;4993997;28;20476;-81
2021/09/19 08:52:26;;;;;;;2.33;1.20;;;17.10;99.90;;;;;;4993995;28;20413;-81
2021/09/19 08:54:53;;;;;;;3.03;1.70;;;17.30;99.90;;;;;;4994611;28;20806;-81
2021/09/19 08:57:20;;;;;;;1.97;1.30;;;17.60;99.90;;;;;;4993858;28;20435;-82
2021/09/19 08:59:49;;;;;;;1.00;0.90;;;17.80;99.90;;;;;;4993808;28;20475;-82
2021/09/19 09:02:17;;;;;;;2.50;1.47;;;18.20;99.90;;;;;;4993908;28;20487;-82
2021/09/19 09:04:45;;;;;;;2.27;1.53;;;18.80;99.90;;;;;;4993855;28;20452;-82
2021/09/19 09:07:13;;;;;;;1.63;1.53;;;19.40;99.90;;;;;;4993785;28;20432;-81
2021/09/19 09:09:53;;;;;;;2.47;1.00;;;20.00;99.90;;;;;;4993654;28;20488;-82
2021/09/19 09:12:20;;;;;;;1.40;1.30;;;20.40;99.90;;;;;;4993822;28;20475;-82
2021/09/19 09:14:49;;;;;;;2.60;1.47;;;20.50;99.90;;;;;;4993835;28;20609;-82
2021/09/19 09:17:18;;;;;;;3.40;1.63;;;20.30;99.90;;;;;;4993591;28;20445;-82
2021/09/19 09:19:47;;;;;;;2.83;1.83;;;20.10;99.90;;;;;;4997517;28;20481;-82
2021/09/19 09:22:14;;;;;;;1.27;1.10;;;19.90;99.90;;;;;;4997985;28;20862;-82
2021/09/19 09:24:45;;;;;;;3.40;2.00;;;19.90;99.90;;;;;;4997514;28;20428;-82
2021/09/19 09:27:20;;;;;;;5.07;1.57;;;19.70;99.90;;;;;;4997790;28;20437;-82
2021/09/19 09:30:06;;;;;;;2.20;1.57;;;19.60;99.90;;;;;;4997375;28;20810;-82
2021/09/19 09:32:33;;;;;;;1.53;1.27;;;19.70;99.90;;;;;;4996281;28;20452;-82
2021/09/19 09:35:11;;;;;;;2.70;1.37;;;19.60;99.90;;;;;;4997370;28;20444;-82
2021/09/19 09:37:40;;;;;;;1.93;1.37;;;19.60;99.90;;;;;;4997910;28;20472;-82
2021/09/19 09:40:16;;;;;;;1.47;1.10;;;19.60;99.90;;;;;;4997859;28;20504;-82
2021/09/19 09:43:01;;;;;;;2.23;1.40;;;19.60;99.90;;;;;;4998274;28;20439;-83
2021/09/19 09:45:30;;;;;;;3.00;1.60;;;19.50;99.90;;;;;;4996955;28;20473;-83
2021/09/19 09:47:57;;;;;;;1.40;1.27;;;19.50;99.90;;;;;;4996869;28;20949;-82
2021/09/19 09:50:26;;;;;;;1.33;1.10;;;19.30;99.90;;;;;;4997022;28;20468;-82
2021/09/19 09:53:06;;;;;;;1.37;1.10;;;19.20;99.90;;;;;;4997144;28;20421;-82
2021/09/19 09:55:35;;;;;;;2.20;1.60;;;19.30;99.90;;;;;;4996692;28;20428;-82
2021/09/19 09:58:09;;;;;;;2.00;1.33;;;19.20;99.90;;;;;;4996910;28;20464;-83
2021/09/19 10:00:37;;;;;;;3.30;1.60;;;19.10;99.90;;;;;;4996631;28;20451;-82
2021/09/19 10:03:04;;;;;;;1.40;1.10;;;19.30;99.90;;;;;;4996630;28;20491;-83
2021/09/19 10:05:31;;;;;;;3.90;1.53;;;19.70;99.90;;;;;;4996745;28;20452;-82
2021/09/19 10:07:58;;;;;;;4.40;1.43;;;20.10;99.90;;;;;;4996580;28;20785;-83
2021/09/19 10:10:27;;;;;;;1.70;1.13;;;20.10;99.90;;;;;;4996419;28;20468;-84
2021/09/19 10:12:58;;;;;;;3.20;1.90;;;20.00;99.90;;;;;;4996663;28;20436;-83
2021/09/19 10:15:25;;;;;;;2.10;1.40;;;19.60;99.90;;;;;;5120493;23;20481;-89
2021/09/19 10:17:53;;;;;;;2.00;1.30;;;19.40;99.90;;;;;;5135614;23;20495;-90
2021/09/19 10:31:15;;;;;;;2.60;2.00;;;19.20;99.90;;;;;;5382248;23;20554;-87
2021/09/19 10:44:05;;;;;;;1.17;1.00;;;18.60;99.90;;;;;;5803688;23;20511;-85
2021/09/19 10:46:48;;;;;;;2.40;1.00;;;19.00;99.90;;;;;;4996120;28;20456;-86
2021/09/19 10:49:17;;;;;;;3.07;1.33;;;19.30;99.90;;;;;;4995693;28;20982;-86
2021/09/19 10:52:08;;;;;;;1.43;1.03;;;19.40;99.90;;;;;;4996093;28;20413;-86
2021/09/19 10:54:47;;;;;;;1.27;1.03;;;19.70;99.90;;;;;;4995868;28;20951;-86
2021/09/19 10:57:15;;;;;;;1.97;1.20;;;20.20;99.90;;;;;;4995863;28;20464;-86
2021/09/19 11:00:13;;;;;;;2.10;1.10;;;20.60;99.90;;;;;;4995863;28;20496;-86
2021/09/19 11:02:43;;;;;;;2.90;1.50;;;20.70;99.90;;;;;;4995507;28;20950;-86
2021/09/19 11:05:23;;;;;;;1.90;1.17;;;20.50;99.90;;;;;;4995897;28;20500;-85
2021/09/19 11:07:50;;;;;;;2.13;1.43;;;20.10;99.90;;;;;;4996078;28;20452;-85
2021/09/19 11:10:17;;;;;;;1.17;1.07;;;19.80;99.90;;;;;;4995577;28;20467;-85
2021/09/19 11:12:46;;;;;;;1.50;1.30;;;19.50;99.90;;;;;;4995711;28;20448;-86
2021/09/19 11:15:22;;;;;;;2.13;1.33;;;19.30;99.90;;;;;;4995371;28;20913;-86
2021/09/19 11:17:51;;;;;;;1.83;1.20;;;19.20;99.90;;;;;;4995723;28;20454;-85
2021/09/19 11:20:24;;;;;;;1.40;0.93;;;19.10;99.90;;;;;;4995496;28;20843;-86
2021/09/19 11:22:52;;;;;;;2.27;2.07;;;19.00;99.90;;;;;;4996670;28;20520;-85
2021/09/19 11:25:21;;;;;;;2.60;1.77;;;19.10;99.90;;;;;;4998150;28;20437;-85
2021/09/19 11:27:50;;;;;;;1.43;1.20;;;19.00;99.90;;;;;;4995292;28;20920;-87
2021/09/19 11:30:21;;;;;;;1.73;1.23;;;19.30;99.90;;;;;;4995454;28;20464;-87
2021/09/19 11:32:48;;;;;;;1.80;1.67;;;19.60;99.90;;;;;;4995269;28;21003;-87
2021/09/19 11:35:17;;;;;;;1.60;1.17;;;19.90;99.90;;;;;;4995324;28;20444;-86
2021/09/19 11:37:44;;;;;;;2.10;1.23;;;20.30;99.90;;;;;;4995446;28;20436;-87
2021/09/19 11:40:22;;;;;;;1.53;1.20;;;20.50;99.90;;;;;;4994620;28;20495;-86
2021/09/19 11:42:51;;;;;;;2.80;1.20;;;20.50;99.90;;;;;;4995188;28;20440;-81
2021/09/19 11:45:19;;;;;;;4.70;1.10;;;20.40;99.90;;;;;;4994537;28;20893;-82
2021/09/19 11:47:48;;;;;;;1.43;1.20;;;20.30;99.90;;;;;;4994955;28;20429;-82
2021/09/19 11:50:16;;;;;;;1.77;1.17;;;20.20;99.90;;;;;;4994576;28;20964;-85
2021/09/19 11:52:42;;;;;;;1.10;0.90;;;19.90;99.90;;;;;;4995107;28;20920;-88
2021/09/19 11:55:11;;;;;;;1.17;0.90;;;19.60;99.90;;;;;;4994978;28;20441;-88
2021/09/19 11:57:38;;;;;;;1.37;1.10;;;19.40;99.90;;;;;;4995294;28;20413;-88
2021/09/19 12:00:08;;;;;;;1.40;0.90;;;19.20;99.90;;;;;;4994349;28;20492;-83
2021/09/19 12:02:39;;;;;;;3.57;1.70;;;19.00;99.90;;;;;;4994645;28;20528;-83
2021/09/19 12:05:08;;;;;;;2.00;1.10;;;18.90;99.90;;;;;;4995096;28;20794;-87
2021/09/19 12:07:36;;;;;;;1.10;1.00;;;18.90;99.90;;;;;;4995062;28;20455;-87
2021/09/19 12:10:05;;;;;;;0.80;0.80;;;18.80;99.90;;;;;;4994736;28;20987;-87
2021/09/19 12:12:31;;;;;;;1.00;0.90;;;18.80;99.90;;;;;;4994506;28;20916;-81
2021/09/19 12:14:58;;;;;;;1.80;1.17;;;18.90;99.90;;;;;;4994846;28;20441;-82
2021/09/19 12:17:26;;;;;;;0.87;0.87;;;19.00;99.90;;;;;;4994373;28;20439;-82
2021/09/19 12:19:58;;;;;;;1.10;0.73;;;19.10;99.90;;;;;;4993988;28;20494;-83
2021/09/19 12:22:25;;;;;;;1.57;0.83;;;19.10;99.90;;;;;;4994380;28;20469;-82
2021/09/19 12:24:55;;;;;;;0.80;0.80;;;19.30;99.90;;;;;;4994423;28;20440;-82
2021/09/19 12:27:26;;;;;;;2.20;1.10;;;19.40;99.90;;;;;;4994248;28;20440;-83
2021/09/19 12:30:02;;;;;;;1.97;0.80;;;19.40;99.90;;;;;;4993844;28;20479;-83
2021/09/19 12:32:37;;;;;;;1.43;0.70;;;19.40;99.90;;;;;;4994255;28;20444;-84
2021/09/19 12:35:05;;;;;;;1.57;1.00;;;19.50;99.90;;;;;;4994193;28;20508;-84
2021/09/19 12:37:35;;;;;;;1.07;0.97;;;19.50;99.90;;;;;;4993931;28;20414;-85
2021/09/19 12:40:12;;;;;;;0.90;0.90;;;19.50;99.90;;;;;;4993997;28;20520;-82
2021/09/19 12:42:39;;;;;;;2.20;1.00;;;19.50;99.90;;;;;;4994284;28;20436;-84
2021/09/19 12:45:09;;;;;;;1.67;1.20;;;19.60;99.90;;;;;;4993862;28;20491;-86
2021/09/19 12:47:38;;;;;;;2.57;1.13;;;19.60;99.90;;;;;;4994054;28;20847;-80
2021/09/19 12:50:08;;;;;;;1.57;0.53;;;19.50;99.90;;;;;;4993958;28;20468;-80
2021/09/19 12:52:37;;;;;;;2.07;1.13;;;19.40;99.90;;;;;;4997628;28;20436;-79
2021/09/19 12:55:06;;;;;;;1.67;0.70;;;19.30;99.90;;;;;;5000560;28;20445;-80
2021/09/19 12:57:34;;;;;;;1.23;0.80;;;19.30;99.90;;;;;;5000169;28;20916;-81
2021/09/19 13:00:01;;;;;;;3.40;1.07;;;19.30;99.90;;;;;;5000219;28;20488;-80
2021/09/19 13:02:28;;;;;;;1.53;0.90;;;19.30;99.90;;;;;;5000458;28;20437;-79
2021/09/19 13:04:54;;;;;;;1.73;1.07;;;19.30;99.90;;;;;;5000357;28;20436;-80
2021/09/19 13:07:21;;;;;;;1.17;0.77;;;19.20;99.90;;;;;;5000604;28;20440;-80
2021/09/19 13:09:48;;;;;;;1.23;0.80;;;19.20;99.90;;;;;;5000771;28;20479;-86
2021/09/19 13:12:16;;;;;;;2.73;1.37;;;19.20;99.90;;;;;;5000504;28;20433;-86
2021/09/19 13:14:43;;;;;;;0.80;0.80;;;19.10;99.90;;;;;;5000634;28;20433;-84